Hauptseite
METAR-TAF:

METAR-TAF

Flughäfen :

Heringsdorf, Deutschland

Flughafen Heringsdorf

Breite: 53-53N, Länge: 014-09E, Höhe: 28 m

Beobachtung

Neuester Wetterbericht von vor 39 Minuten, um 10:50 UTC
Wind 8 kt aus West/Nordwest, variierte zwischen West und Nord/Nordwest
Temperatur 6°C
Luftfeuchtigkeit 75%
Luftdruck 1027 hPa
Sichtweite 10 km oder mehr
Durchbrochene Bewölkung in der Höhe von 1900 ft

METAR: EDAH 251050Z 30008KT 260V340 9999 BKN019 06/02 Q1027

Zeit: 12:29 (11:29 UTC)

Prognose

Neuester Wetterbericht von vor 3 Stunden und 29 Minuten, um 08:00 UTC
Gültige Prognose vom 25 um 09 UTC bis 25 um 18 UTC
Wind 10 kt aus West/Nordwest
Sichtweite 10 km oder mehr
keine Wolken unter 1500 m und keine Kumulonimbus oder Gewitterwolken
Zeitweise
vom 25 um 09 UTC bis 25 um 15 UTC
Durchbrochene Bewölkung in der Höhe von 800 ft

TAF: EDAH 250800Z 2509/2518 29010KT CAVOK TEMPO 2509/2515 BKN008

Wetterbeobachtungen und Prognosen von mehr als 4000 Flughäfen (METAR und TAF Bericht).

Die verfügbaren Stationen werden durch gelbe und rote Markierungen auf der Karte dargestellt.

Führen Sie die Maus auf sie, um den Namen der Station zu sehen.

Darauf klicken, um die Beobachtung von Wetterbeobachtungen und Prognosen zu sehen.

Um die Karte zu ändern : klicken Sie auf den grünen Tasten mit einem schwarzen Kreuz Zum Vergrößern, auf den grünen Button mit einem Gedankenstrich zu verkleinern, oder auf die grünen Pfeile für benachbarte Karten.


METAR-TAF: